Time;durP1;ratioP1;P1;durP2;ratioP2;P2;SDS_P1;SDS_P2;PMS_P1;PMS_P2;Temp;Humidity;BMP_temperature;BMP_pressure;BME280_temperature;BME280_humidity;BME280_pressure;Samples;Min_cycle;Max_cycle;Signal;HPM_P1;HPM_P2
2023/08/13 00:00:44;;;;;;;;;;;;;;;20.38;62.77;101263.48;108799;1257;58782;-93
2023/08/13 00:03:32;;;;;;;;;;;;;;;20.40;62.64;101256.70;108720;1256;124632;-94
2023/08/13 00:06:01;;;;;;;;;;;;;;;20.41;62.47;101253.84;108716;1257;67020;-94
2023/08/13 00:08:28;;;;;;;;;;;;;;;20.42;62.44;101254.90;108526;1259;124708;-92
2023/08/13 00:10:59;;;;;;;;;;;;;;;20.42;62.30;101265.07;108802;1256;58487;-92
2023/08/13 00:13:26;;;;;;;;;;;;;;;20.41;62.00;101263.46;108662;1256;59853;-90
2023/08/13 00:15:53;;;;;;;;;;;;;;;20.42;61.84;101258.64;108634;1257;124339;-90
2023/08/13 00:18:20;;;;;;;;;;;;;;;20.42;61.72;101257.58;108719;1262;66444;-90
2023/08/13 00:20:51;;;;;;;;;;;;;;;20.42;61.69;101256.70;108715;1256;125022;-90
2023/08/13 00:23:18;;;;;;;;;;;;;;;20.43;61.90;101252.40;108635;1257;59363;-90
2023/08/13 00:25:45;;;;;;;;;;;;;;;20.43;62.08;101255.07;108551;1257;124567;-90
2023/08/13 00:28:13;;;;;;;;;;;;;;;20.42;62.62;101237.80;108698;1259;74042;-90
2023/08/13 00:30:40;;;;;;;;;;;;;;;20.39;63.01;101234.77;108706;1257;65757;-89
2023/08/13 00:33:06;;;;;;;;;;;;;;;20.36;63.37;101230.17;108696;1257;125329;-89
2023/08/13 00:35:33;;;;;;;;;;;;;;;20.33;63.70;101232.68;108691;1259;58466;-89
2023/08/13 00:38:00;;;;;;;;;;;;;;;20.31;64.15;101234.84;108567;1272;124643;-91
2023/08/13 00:40:27;;;;;;;;;;;;;;;20.28;64.48;101231.30;108738;1257;75712;-91
2023/08/13 00:42:55;;;;;;;;;;;;;;;20.25;64.92;101226.34;108600;1257;68549;-89
2023/08/13 00:45:24;;;;;;;;;;;;;;;20.20;64.95;101219.95;108503;1257;125431;-90
2023/08/13 00:47:51;;;;;;;;;;;;;;;20.17;65.33;101221.95;108760;1257;58512;-89
2023/08/13 00:50:18;;;;;;;;;;;;;;;20.12;65.38;101224.82;108549;1256;124733;-90
2023/08/13 00:52:47;;;;;;;;;;;;;;;20.06;65.65;101221.30;108693;1257;71773;-90
2023/08/13 00:55:14;;;;;;;;;;;;;;;20.02;65.87;101227.91;108727;1257;67095;-89
2023/08/13 00:57:41;;;;;;;;;;;;;;;19.98;66.01;101229.19;108632;1259;124169;-89
2023/08/13 01:00:10;;;;;;;;;;;;;;;19.96;66.20;101225.98;108721;1256;58520;-90
2023/08/13 01:02:38;;;;;;;;;;;;;;;19.92;66.34;101229.23;108648;1257;124933;-90
2023/08/13 01:05:08;;;;;;;;;;;;;;;19.88;66.66;101223.02;108637;1257;74228;-90
2023/08/13 01:07:51;;;;;;;;;;;;;;;19.87;66.77;101223.74;108584;1257;66132;-89
2023/08/13 01:10:20;;;;;;;;;;;;;;;19.84;66.85;101226.77;108707;1264;73946;-89
2023/08/13 01:12:59;;;;;;;;;;;;;;;19.81;66.98;101222.70;108710;1257;61180;-89
2023/08/13 01:15:29;;;;;;;;;;;;;;;19.77;67.18;101218.27;108772;1256;124675;-89
2023/08/13 01:17:56;;;;;;;;;;;;;;;19.77;67.47;101216.86;108858;1256;73883;-91
2023/08/13 01:20:24;;;;;;;;;;;;;;;19.76;67.47;101220.77;108659;1262;125299;-91
2023/08/13 01:22:51;;;;;;;;;;;;;;;19.75;67.30;101216.14;108582;1257;72801;-91
2023/08/13 01:25:18;;;;;;;;;;;;;;;19.76;67.59;101219.16;108669;1260;60200;-92
2023/08/13 01:27:57;;;;;;;;;;;;;;;19.78;67.72;101215.23;108482;1258;125181;-91
2023/08/13 01:30:37;;;;;;;;;;;;;;;19.77;67.88;101209.54;108700;1257;74271;-91
2023/08/13 01:33:07;;;;;;;;;;;;;;;19.77;68.10;101215.41;108705;1256;125642;-92
2023/08/13 01:35:34;;;;;;;;;;;;;;;19.77;68.21;101218.98;108506;1256;73610;-90
2023/08/13 01:38:02;;;;;;;;;;;;;;;19.77;68.40;101212.21;108545;1258;125645;-90
2023/08/13 01:40:29;;;;;;;;;;;;;;;19.77;68.69;101206.16;108719;1272;60515;-90
2023/08/13 01:42:55;;;;;;;;;;;;;;;19.78;68.89;101207.93;108773;1256;73975;-91
2023/08/13 01:45:22;;;;;;;;;;;;;;;19.78;69.02;101210.07;108584;1260;124654;-90
2023/08/13 01:47:49;;;;;;;;;;;;;;;19.78;69.20;101205.26;108664;1263;72559;-90
2023/08/13 01:50:18;;;;;;;;;;;;;;;19.77;69.26;101197.27;108711;1257;125265;-91
2023/08/13 01:52:45;;;;;;;;;;;;;;;19.75;69.25;101188.17;108657;1258;60877;-90
2023/08/13 01:55:11;;;;;;;;;;;;;;;19.74;69.50;101186.40;108801;1256;73938;-90
2023/08/13 01:57:41;;;;;;;;;;;;;;;19.76;69.59;101184.27;108826;1257;124778;-89
2023/08/13 02:00:12;;;;;;;;;;;;;;;19.76;69.88;101184.43;108887;1261;71427;-89
2023/08/13 02:02:46;;;;;;;;;;;;;;;19.76;69.89;101175.73;108667;1264;124315;-90
2023/08/13 02:05:14;;;;;;;;;;;;;;;19.76;69.81;101175.19;108852;1256;59516;-90
2023/08/13 02:07:41;;;;;;;;;;;;;;;19.75;69.85;101176.08;108935;1258;75029;-91
2023/08/13 02:10:08;;;;;;;;;;;;;;;19.73;69.90;101179.27;108898;1256;125049;-91
2023/08/13 02:12:35;;;;;;;;;;;;;;;19.72;69.95;101179.98;108988;1256;70633;-89
2023/08/13 02:15:05;;;;;;;;;;;;;;;19.71;69.84;101179.80;108663;1257;124916;-90
2023/08/13 02:17:32;;;;;;;;;;;;;;;19.68;69.93;101178.92;108875;1256;60792;-89
2023/08/13 02:19:59;;;;;;;;;;;;;;;19.67;70.15;101176.63;108732;1257;125486;-89
2023/08/13 02:22:26;;;;;;;;;;;;;;;19.67;70.12;101175.73;108788;1256;66025;-89
2023/08/13 02:24:53;;;;;;;;;;;;;;;19.65;70.03;101177.70;108796;1259;71556;-90
2023/08/13 02:27:20;;;;;;;;;;;;;;;19.65;70.07;101175.73;108826;1256;125935;-90
2023/08/13 02:29:57;;;;;;;;;;;;;;;19.65;69.97;101171.12;108925;1257;59106;-90
2023/08/13 02:32:24;;;;;;;;;;;;;;;19.65;69.91;101168.80;108765;1256;125046;-91
2023/08/13 02:34:57;;;;;;;;;;;;;;;19.62;69.96;101167.92;108743;1257;65503;-91
2023/08/13 02:37:24;;;;;;;;;;;;;;;19.61;70.00;101172.38;107974;1257;71381;-90
2023/08/13 02:39:51;;;;;;;;;;;;;;;19.60;69.91;101164.38;107996;1256;124557;-91
2023/08/13 02:42:19;;;;;;;;;;;;;;;19.58;70.14;101158.88;107917;1257;61185;-91
2023/08/13 02:44:54;;;;;;;;;;;;;;;19.57;70.25;101157.27;107646;1259;125173;-91
2023/08/13 02:47:22;;;;;;;;;;;;;;;19.59;70.34;101159.58;107958;1262;66497;-90
2023/08/13 02:49:52;;;;;;;;;;;;;;;19.57;70.38;101159.95;107552;1257;124878;-90
2023/08/13 02:52:19;;;;;;;;;;;;;;;19.52;70.42;101166.91;107689;1256;60611;-89
2023/08/13 02:54:46;;;;;;;;;;;;;;;19.47;70.62;101162.48;108843;1256;59335;-89
2023/08/13 02:57:16;;;;;;;;;;;;;;;19.41;70.68;101158.95;107934;1258;125019;-90
2023/08/13 02:59:43;;;;;;;;;;;;;;;19.35;70.79;101147.95;107686;1263;67093;-88
2023/08/13 03:02:10;;;;;;;;;;;;;;;19.28;70.85;101151.38;107328;1256;125575;-90
2023/08/13 03:04:38;;;;;;;;;;;;;;;19.19;71.00;101154.44;107524;1257;59826;-90
2023/08/13 03:07:05;;;;;;;;;;;;;;;19.11;71.18;101151.45;107542;1259;59241;-90
2023/08/13 03:09:32;;;;;;;;;;;;;;;19.05;71.31;101156.98;107407;1257;124720;-90
2023/08/13 03:11:59;;;;;;;;;;;;;;;19.00;71.50;101156.28;107729;1260;67518;-91
2023/08/13 03:14:26;;;;;;;;;;;;;;;18.97;71.74;101157.36;107759;1257;125188;-90
2023/08/13 03:16:53;;;;;;;;;;;;;;;18.93;71.87;101158.80;107596;1256;59144;-90
2023/08/13 03:19:27;;;;;;;;;;;;;;;18.93;72.14;101158.80;107549;1256;60547;-91
2023/08/13 03:21:58;;;;;;;;;;;;;;;18.94;72.20;101159.68;106798;1256;125027;-89
2023/08/13 03:24:30;;;;;;;;;;;;;;;18.96;72.29;101161.27;107037;1257;67221;-89
2023/08/13 03:26:57;;;;;;;;;;;;;;;18.98;72.42;101162.69;107241;1257;124912;-88
2023/08/13 03:29:24;;;;;;;;;;;;;;;19.01;72.51;101162.15;107519;1256;60381;-89
2023/08/13 03:31:51;;;;;;;;;;;;;;;19.02;72.50;101164.98;107580;1257;125305;-89
2023/08/13 03:34:18;;;;;;;;;;;;;;;19.03;72.44;101166.41;107709;1257;74508;-89
2023/08/13 03:36:45;;;;;;;;;;;;;;;19.07;72.57;101167.83;107645;1257;66168;-89
2023/08/13 03:39:12;;;;;;;;;;;;;;;19.09;72.50;101164.43;107585;1256;125166;-88
2023/08/13 03:41:43;;;;;;;;;;;;;;;19.11;72.55;101163.90;107689;1258;60402;-89
2023/08/13 03:44:10;;;;;;;;;;;;;;;19.12;72.54;101168.34;107517;1257;126194;-90
2023/08/13 03:46:37;;;;;;;;;;;;;;;19.14;72.57;101168.32;107575;1262;72620;-89
2023/08/13 03:49:04;;;;;;;;;;;;;;;19.18;72.77;101174.90;107496;1258;65846;-89
2023/08/13 03:51:33;;;;;;;;;;;;;;;19.27;72.79;101174.51;107713;1262;124656;-89
2023/08/13 03:54:00;;;;;;;;;;;;;;;19.32;72.59;101171.45;108586;1260;59925;-89
2023/08/13 03:56:28;;;;;;;;;;;;;;;19.34;72.49;101172.88;108625;1257;127166;-90
2023/08/13 03:58:55;;;;;;;;;;;;;;;19.38;72.58;101173.38;108647;1257;74800;-90
2023/08/13 04:01:22;;;;;;;;;;;;;;;19.45;72.72;101169.45;108562;1256;67023;-91
2023/08/13 04:03:49;;;;;;;;;;;;;;;19.62;72.98;101173.81;108712;1257;124738;-89
2023/08/13 04:06:16;;;;;;;;;;;;;;;19.94;73.27;101170.23;108843;1256;58844;-90
2023/08/13 04:08:43;;;;;;;;;;;;;;;20.12;72.53;101171.20;108678;1257;125146;-90
2023/08/13 04:11:12;;;;;;;;;;;;;;;20.15;72.08;101166.89;108574;1257;73921;-90
2023/08/13 04:13:39;;;;;;;;;;;;;;;20.38;72.45;101165.61;108440;1257;66852;-90
2023/08/13 04:16:06;;;;;;;;;;;;;;;20.49;71.71;101165.17;108550;1256;124071;-89
2023/08/13 04:18:34;;;;;;;;;;;;;;;20.53;71.66;101163.55;108735;1262;58653;-90
2023/08/13 04:21:01;;;;;;;;;;;;;;;20.55;71.55;101165.30;108594;1257;124578;-92
2023/08/13 04:23:28;;;;;;;;;;;;;;;20.55;71.44;101169.58;108758;1262;72513;-91
2023/08/13 04:25:55;;;;;;;;;;;;;;;20.57;71.52;101170.63;108614;1257;124118;-91
2023/08/13 04:28:32;;;;;;;;;;;;;;;20.58;71.26;101170.26;108557;1257;73518;-91
2023/08/13 04:31:05;;;;;;;;;;;;;;;20.62;71.12;101173.66;108699;1256;58967;-91
2023/08/13 04:33:35;;;;;;;;;;;;;;;20.62;70.94;101173.27;108657;1262;124062;-90
2023/08/13 04:36:02;;;;;;;;;;;;;;;20.67;71.06;101178.94;108566;1258;73963;-90
2023/08/13 04:38:35;;;;;;;;;;;;;;;20.72;71.00;101178.34;108545;1262;124255;-90
2023/08/13 04:41:02;;;;;;;;;;;;;;;20.78;70.89;101177.59;108693;1262;73062;-90
2023/08/13 04:43:29;;;;;;;;;;;;;;;20.83;70.69;101177.88;108692;1259;58460;-88
2023/08/13 04:45:56;;;;;;;;;;;;;;;20.85;70.35;101178.40;108521;1264;125372;-89
2023/08/13 04:48:39;;;;;;;;;;;;;;;20.87;70.20;101179.09;108694;1257;72335;-90
2023/08/13 04:51:07;;;;;;;;;;;;;;;20.92;70.11;101181.00;108506;1258;124897;-90
2023/08/13 04:53:34;;;;;;;;;;;;;;;20.96;69.86;101184.89;108735;1256;71216;-91
2023/08/13 04:56:01;;;;;;;;;;;;;;;21.05;69.99;101189.25;108613;1256;124556;-91
2023/08/13 04:58:28;;;;;;;;;;;;;;;21.18;70.00;101186.60;108758;1256;59299;-89
2023/08/13 05:00:55;;;;;;;;;;;;;;;21.40;70.03;101187.58;108698;1256;74236;-90
2023/08/13 05:03:23;;;;;;;;;;;;;;;22.24;71.56;101194.05;108544;1265;124533;-91
2023/08/13 05:05:50;;;;;;;;;;;;;;;23.35;70.02;101193.33;108783;1262;72730;-90
2023/08/13 05:08:24;;;;;;;;;;;;;;;23.80;68.21;101194.15;108732;1257;124701;-91
2023/08/13 05:10:51;;;;;;;;;;;;;;;24.76;69.00;101193.40;108749;1257;59665;-90
2023/08/13 05:13:18;;;;;;;;;;;;;;;26.03;66.68;101191.54;108837;1257;72455;-91
2023/08/13 05:15:46;;;;;;;;;;;;;;;26.35;63.92;101191.41;108893;1259;124089;-89
2023/08/13 05:18:13;;;;;;;;;;;;;;;26.12;62.77;101188.91;108284;1260;71311;-89
2023/08/13 05:20:40;;;;;;;;;;;;;;;26.06;62.39;101188.23;107563;1257;123955;-91
2023/08/13 05:23:10;;;;;;;;;;;;;;;25.88;61.78;101190.20;107547;1259;59030;-90
2023/08/13 05:25:38;;;;;;;;;;;;;;;25.76;61.52;101193.45;107604;1256;71929;-91
2023/08/13 05:28:11;;;;;;;;;;;;;;;25.74;61.12;101191.70;107672;1262;124885;-90
2023/08/13 05:33:48;;;;;;;;;;;;;;;25.79;60.68;101201.27;107703;1258;124715;-92
2023/08/13 05:36:33;;;;;;;;;;;;;;;25.78;60.28;101202.02;107932;1256;60222;-92
2023/08/13 05:39:01;;;;;;;;;;;;;;;25.62;60.11;101204.49;108671;1260;124422;-89
2023/08/13 05:42:22;;;;;;;;;;;;;;;25.45;59.95;101208.41;108776;1257;66629;-89
2023/08/13 05:44:50;;;;;;;;;;;;;;;25.33;59.99;101209.66;108160;1264;124553;-92
2023/08/13 05:47:34;;;;;;;;;;;;;;;25.23;60.03;101207.79;108856;1259;58103;-91
2023/08/13 05:50:03;;;;;;;;;;;;;;;25.12;60.03;101209.68;108847;1256;124496;-91
2023/08/13 05:52:48;;;;;;;;;;;;;;;25.01;60.08;101212.50;109147;1256;72347;-91
2023/08/13 05:55:19;;;;;;;;;;;;;;;24.86;60.15;101215.07;108934;1256;66842;-90
2023/08/13 05:58:10;;;;;;;;;;;;;;;24.73;60.36;101212.36;108549;1257;124421;-92
2023/08/13 06:00:55;;;;;;;;;;;;;;;24.60;60.59;101214.13;108752;1256;58533;-90
2023/08/13 06:03:32;;;;;;;;;;;;;;;24.57;60.86;101213.86;108720;1258;124187;-93
2023/08/13 06:06:02;;;;;;;;;;;;;;;24.48;61.11;101216.41;108767;1257;73693;-90
2023/08/13 06:08:42;;;;;;;;;;;;;;;24.36;61.32;101219.02;108623;1256;124618;-93
2023/08/13 06:11:18;;;;;;;;;;;;;;;24.39;61.74;101217.16;108191;1260;71199;-94
2023/08/13 06:14:47;;;;;;;;;;;;;;;24.50;62.07;101221.73;107760;1257;124971;-89
2023/08/13 06:17:29;;;;;;;;;;;;;;;24.64;62.10;101219.23;106967;1256;61189;-85
2023/08/13 06:20:18;;;;;;;;;;;;;;;24.66;62.01;101221.35;107296;1257;73265;-89
2023/08/13 06:26:23;;;;;;;;;;;;;;;24.66;61.97;101233.90;107348;1256;124242;-92
2023/08/13 06:28:54;;;;;;;;;;;;;;;24.53;61.97;101232.08;107516;1259;60051;-90
2023/08/13 06:31:40;;;;;;;;;;;;;;;24.49;62.16;101235.95;107372;1261;61254;-93
2023/08/13 06:37:19;;;;;;;;;;;;;;;24.57;62.30;101235.57;107309;1256;65766;-91
2023/08/13 06:40:08;;;;;;;;;;;;;;;24.49;62.30;101236.46;107206;1256;124078;-90
2023/08/13 06:43:14;;;;;;;;;;;;;;;24.49;62.59;101241.48;107415;1256;61266;-89
2023/08/13 06:45:43;;;;;;;;;;;;;;;24.56;62.70;101240.08;106994;1258;124459;-90
2023/08/13 06:48:38;;;;;;;;;;;;;;;24.70;62.69;101250.48;107256;1256;74659;-91
2023/08/13 06:51:17;;;;;;;;;;;;;;;24.84;62.54;101253.01;107203;1257;124316;-92
2023/08/13 06:53:54;;;;;;;;;;;;;;;24.94;62.42;101253.81;107090;1257;73518;-84
2023/08/13 06:56:30;;;;;;;;;;;;;;;25.01;62.26;101257.03;107048;1256;124260;-84
2023/08/13 06:59:03;;;;;;;;;;;;;;;25.04;62.16;101257.66;107093;1257;59960;-84
2023/08/13 07:01:32;;;;;;;;;;;;;;;25.12;62.21;101259.98;107118;1256;74687;-83
2023/08/13 07:04:18;;;;;;;;;;;;;;;25.14;62.15;101253.83;107032;1261;124981;-83
2023/08/13 07:06:52;;;;;;;;;;;;;;;25.08;61.93;101256.33;107252;1257;72769;-89
2023/08/13 07:09:38;;;;;;;;;;;;;;;24.99;61.94;101259.41;107051;1257;124188;-90
2023/08/13 07:12:20;;;;;;;;;;;;;;;25.06;62.10;101259.95;107231;1256;61215;-87
2023/08/13 07:14:48;;;;;;;;;;;;;;;25.28;62.14;101264.42;107098;1256;124464;-89
2023/08/13 07:20:25;;;;;;;;;;;;;;;25.55;61.38;101264.70;106921;1256;125203;-84
2023/08/13 07:23:04;;;;;;;;;;;;;;;25.72;61.45;101262.06;106945;1257;61328;-83
2023/08/13 07:25:32;;;;;;;;;;;;;;;25.88;60.95;101263.20;107100;1256;61396;-84
2023/08/13 07:28:00;;;;;;;;;;;;;;;25.80;60.42;101269.20;107145;1257;124423;-81
2023/08/13 07:30:28;;;;;;;;;;;;;;;25.68;60.38;101269.55;107089;1256;66876;-83
2023/08/13 07:33:03;;;;;;;;;;;;;;;25.65;60.44;101271.45;106951;1256;124472;-84
2023/08/13 07:35:39;;;;;;;;;;;;;;;25.69;60.41;101271.14;107205;1257;61469;-87
2023/08/13 07:38:07;;;;;;;;;;;;;;;25.80;60.22;101270.83;106830;1261;124398;-85
2023/08/13 07:40:34;;;;;;;;;;;;;;;25.90;60.01;101267.28;107092;1257;73941;-86
2023/08/13 07:43:20;;;;;;;;;;;;;;;26.04;59.84;101274.24;106997;1262;67083;-84
2023/08/13 07:45:47;;;;;;;;;;;;;;;26.08;59.56;101272.15;107024;1257;124061;-84
2023/08/13 07:48:26;;;;;;;;;;;;;;;26.11;59.29;101272.59;107473;1257;61234;-83
2023/08/13 07:51:03;;;;;;;;;;;;;;;26.04;58.88;101272.63;106891;1259;125870;-84
2023/08/13 07:53:33;;;;;;;;;;;;;;;25.85;58.76;101272.65;107222;1257;73371;-84
2023/08/13 07:56:07;;;;;;;;;;;;;;;25.69;59.09;101271.67;107429;1257;64641;-86
2023/08/13 07:58:35;;;;;;;;;;;;;;;25.64;59.26;101277.05;107523;1256;72582;-86
2023/08/13 08:01:33;;;;;;;;;;;;;;;;;;;;;
2023/08/13 08:04:31;;;;;;;;;;;;;;;25.71;59.35;101282.04;107118;1257;123958;-90
2023/08/13 08:06:58;;;;;;;;;;;;;;;25.77;59.11;101281.66;107277;1256;74575;-87
2023/08/13 08:09:37;;;;;;;;;;;;;;;25.86;59.15;101281.61;107371;1256;124070;-91
2023/08/13 08:12:19;;;;;;;;;;;;;;;25.89;59.01;101287.27;107186;1256;72638;-85
2023/08/13 08:14:55;;;;;;;;;;;;;;;25.73;58.72;101288.30;107262;1257;124377;-87
2023/08/13 08:17:24;;;;;;;;;;;;;;;25.62;58.77;101288.42;107206;1256;61279;-85
2023/08/13 08:19:51;;;;;;;;;;;;;;;25.59;58.87;101290.83;107165;1257;74740;-84
2023/08/13 08:22:54;;;;;;;;;;;;;;;25.56;58.60;101295.25;107666;1256;124117;-91
2023/08/13 08:31:44;;;;;;;;;;;;;;;25.22;58.35;101306.96;107508;1256;61276;-87
2023/08/13 08:34:34;;;;;;;;;;;;;;;25.37;58.85;101306.91;107241;1257;124120;-91
2023/08/13 08:37:50;;;;;;;;;;;;;;;25.70;58.57;101297.90;107462;1257;65771;-91
2023/08/13 08:41:17;;;;;;;;;;;;;;;25.99;58.09;101308.03;107407;1262;72435;-94
2023/08/13 08:47:20;;;;;;;;;;;;;;;25.72;56.92;101305.55;107597;1260;61055;-95
2023/08/13 08:50:15;;;;;;;;;;;;;;;25.61;57.00;101302.30;107247;1262;74479;-92
2023/08/13 08:52:52;;;;;;;;;;;;;;;25.50;57.04;101301.35;107626;1261;65007;-86
2023/08/13 08:55:22;;;;;;;;;;;;;;;25.39;56.93;101311.52;106790;1261;71575;-87
2023/08/13 08:58:07;;;;;;;;;;;;;;;25.28;57.24;101312.20;106844;1262;124216;-87
2023/08/13 09:00:36;;;;;;;;;;;;;;;25.45;57.70;101308.32;106935;1260;59561;-82
2023/08/13 09:03:27;;;;;;;;;;;;;;;25.66;57.64;101303.77;106978;1259;124335;-89
2023/08/13 09:05:58;;;;;;;;;;;;;;;25.83;57.24;101307.77;107129;1260;66828;-86
2023/08/13 09:08:34;;;;;;;;;;;;;;;25.97;57.25;101309.88;107229;1263;123312;-88
2023/08/13 09:11:29;;;;;;;;;;;;;;;26.20;56.80;101308.48;107398;1259;59476;-89
2023/08/13 09:14:03;;;;;;;;;;;;;;;26.36;56.51;101313.90;107020;1260;61305;-84
2023/08/13 09:16:36;;;;;;;;;;;;;;;26.47;55.99;101320.94;106868;1260;124149;-87
2023/08/13 09:19:11;;;;;;;;;;;;;;;26.50;55.95;101327.49;107018;1262;65939;-86
2023/08/13 09:21:42;;;;;;;;;;;;;;;26.59;55.88;101332.77;106750;1259;124268;-85
2023/08/13 09:24:15;;;;;;;;;;;;;;;26.79;55.95;101330.73;107155;1259;59595;-85
2023/08/13 09:26:42;;;;;;;;;;;;;;;26.99;55.49;101328.23;106906;1260;124844;-86
2023/08/13 09:29:13;;;;;;;;;;;;;;;27.22;55.04;101326.56;106927;1259;66082;-85
2023/08/13 09:31:56;;;;;;;;;;;;;;;27.48;54.81;101333.19;106901;1259;65162;-85
2023/08/13 09:34:24;;;;;;;;;;;;;;;27.75;54.56;101330.05;106672;1259;124030;-83
2023/08/13 09:37:09;;;;;;;;;;;;;;;27.96;53.96;101322.09;106833;1260;59959;-87
2023/08/13 09:39:47;;;;;;;;;;;;;;;28.19;53.65;101319.38;106764;1259;125084;-85
2023/08/13 09:42:25;;;;;;;;;;;;;;;28.31;52.94;101320.52;107135;1259;66053;-84
2023/08/13 09:45:28;;;;;;;;;;;;;;;28.22;52.24;101319.23;106827;1260;125490;-89
2023/08/13 09:48:13;;;;;;;;;;;;;;;27.96;51.92;101325.49;106811;1262;72612;-86
2023/08/13 09:50:41;;;;;;;;;;;;;;;27.88;51.99;101326.86;106795;1259;124318;-85
2023/08/13 09:53:20;;;;;;;;;;;;;;;27.95;52.08;101323.38;106974;1259;61261;-85
2023/08/13 09:55:50;;;;;;;;;;;;;;;28.14;52.05;101326.95;106958;1259;74595;-88
2023/08/13 09:58:29;;;;;;;;;;;;;;;28.19;51.91;101329.47;107010;1256;124074;-84
2023/08/13 10:00:57;;;;;;;;;;;;;;;28.08;51.41;101335.30;107248;1257;73276;-85
2023/08/13 10:03:31;;;;;;;;;;;;;;;27.91;51.31;101335.62;107185;1259;123251;-83
2023/08/13 10:06:08;;;;;;;;;;;;;;;27.78;51.23;101333.54;107456;1258;59774;-84
2023/08/13 10:08:37;;;;;;;;;;;;;;;27.63;50.97;101337.69;107241;1256;124883;-85
2023/08/13 10:11:13;;;;;;;;;;;;;;;27.53;50.89;101341.14;107382;1257;61334;-84
2023/08/13 10:13:47;;;;;;;;;;;;;;;27.40;50.85;101337.64;107358;1257;73314;-86
2023/08/13 10:16:15;;;;;;;;;;;;;;;27.37;50.93;101338.48;107112;1257;124421;-83
2023/08/13 10:18:47;;;;;;;;;;;;;;;27.42;51.08;101339.04;106462;1256;1218060;-82
2023/08/13 10:21:31;;;;;;;;;;;;;;;27.51;51.11;101338.88;107195;1259;124416;-86
2023/08/13 10:24:02;;;;;;;;;;;;;;;27.59;50.92;101339.11;107564;1256;67011;-88
2023/08/13 10:27:01;;;;;;;;;;;;;;;27.58;51.02;101340.59;107314;1256;125644;-88
2023/08/13 10:29:53;;;;;;;;;;;;;;;27.50;50.69;101340.37;107169;1257;61280;-86
2023/08/13 10:32:26;;;;;;;;;;;;;;;27.34;50.40;101342.54;107294;1256;61166;-88
2023/08/13 10:35:34;;;;;;;;;;;;;;;27.17;50.40;101344.38;107742;1256;74546;-92
2023/08/13 10:38:26;;;;;;;;;;;;;;;26.91;50.39;101342.39;107919;1258;67814;-90
2023/08/13 10:44:35;;;;;;;;;;;;;;;26.54;51.07;101344.29;107338;1259;61206;-86
2023/08/13 10:57:32;;;;;;;;;;;;;;;26.72;50.87;101348.06;107590;1257;124406;-91
2023/08/13 11:00:13;;;;;;;;;;;;;;;26.77;50.93;101345.92;107582;1257;59929;-90
2023/08/13 11:02:54;;;;;;;;;;;;;;;26.89;50.87;101349.63;106838;1262;123485;-91
2023/08/13 11:05:54;;;;;;;;;;;;;;;27.01;50.67;101349.98;106896;1262;74756;-89
2023/08/13 11:08:46;;;;;;;;;;;;;;;27.16;50.43;101353.58;107307;1262;66098;-93
2023/08/13 11:11:16;;;;;;;;;;;;;;;27.23;50.13;101349.95;106880;1262;71378;-83
2023/08/13 11:13:51;;;;;;;;;;;;;;;27.22;49.98;101350.88;106967;1262;59624;-88
2023/08/13 11:16:29;;;;;;;;;;;;;;;27.20;50.14;101347.50;107101;1262;124299;-92
2023/08/13 11:19:07;;;;;;;;;;;;;;;27.22;50.00;101351.43;106940;1262;73409;-92
2023/08/13 11:22:07;;;;;;;;;;;;;;;27.25;50.10;101352.58;107002;1262;125147;-88
2023/08/13 11:25:12;;;;;;;;;;;;;;;27.40;50.27;101350.83;107149;1262;71869;-90
2023/08/13 11:27:43;;;;;;;;;;;;;;;27.44;49.81;101357.32;107182;1260;124248;-88
2023/08/13 11:30:12;;;;;;;;;;;;;;;27.51;49.59;101355.27;106956;1262;61267;-90
2023/08/13 11:32:41;;;;;;;;;;;;;;;27.51;48.97;101358.35;107088;1266;75841;-86
2023/08/13 11:35:17;;;;;;;;;;;;;;;27.42;48.67;101358.49;107384;1256;61228;-86
2023/08/13 11:37:44;;;;;;;;;;;;;;;27.28;48.67;101362.02;107296;1256;72790;-87
2023/08/13 11:40:11;;;;;;;;;;;;;;;27.17;48.55;101364.16;107105;1256;124393;-88
2023/08/13 11:42:51;;;;;;;;;;;;;;;27.11;48.75;101361.34;107312;1258;60342;-90
2023/08/13 11:45:35;;;;;;;;;;;;;;;27.24;48.82;101363.08;107429;1256;124453;-89
2023/08/13 11:48:21;;;;;;;;;;;;;;;27.41;48.48;101364.83;107316;1257;67242;-89
2023/08/13 11:51:22;;;;;;;;;;;;;;;27.50;48.18;101365.23;107279;1261;124759;-91
2023/08/13 11:53:53;;;;;;;;;;;;;;;27.40;47.81;101363.07;107631;1257;61349;-93
2023/08/13 11:56:26;;;;;;;;;;;;;;;27.30;47.69;101367.92;107339;1262;61282;-90
2023/08/13 11:58:54;;;;;;;;;;;;;;;27.34;47.84;101371.00;106966;1263;124487;-92
2023/08/13 12:01:37;;;;;;;;;;;;;;;27.40;47.58;101372.80;107212;1256;65818;-88
2023/08/13 12:04:21;;;;;;;;;;;;;;;27.52;47.37;101377.23;107025;1256;124769;-88
2023/08/13 12:06:49;;;;;;;;;;;;;;;27.51;46.71;101376.01;107411;1256;59892;-86
2023/08/13 12:09:16;;;;;;;;;;;;;;;27.48;46.10;101378.45;107443;1256;125800;-90
2023/08/13 12:11:54;;;;;;;;;;;;;;;27.45;46.28;101384.14;107353;1256;74367;-85
2023/08/13 12:14:28;;;;;;;;;;;;;;;27.40;46.37;101384.33;107368;1257;67747;-87
2023/08/13 12:17:01;;;;;;;;;;;;;;;27.32;46.51;101384.06;107081;1257;124204;-90
2023/08/13 12:19:30;;;;;;;;;;;;;;;27.25;46.86;101386.98;107281;1259;61161;-87
2023/08/13 12:21:57;;;;;;;;;;;;;;;27.21;46.93;101390.75;107284;1256;124320;-88
2023/08/13 12:24:32;;;;;;;;;;;;;;;27.12;46.86;101393.02;107223;1256;72955;-89
2023/08/13 12:27:25;;;;;;;;;;;;;;;27.07;47.12;101387.79;107127;1261;124275;-89
2023/08/13 12:30:13;;;;;;;;;;;;;;;27.01;46.78;101391.77;107275;1256;72874;-90
2023/08/13 12:32:52;;;;;;;;;;;;;;;26.87;46.45;101391.85;107196;1256;61229;-87
2023/08/13 12:35:31;;;;;;;;;;;;;;;26.89;46.99;101393.04;107202;1260;59883;-87
2023/08/13 12:37:58;;;;;;;;;;;;;;;27.00;46.83;101389.80;107545;1258;74865;-88
2023/08/13 12:40:28;;;;;;;;;;;;;;;27.07;46.69;101395.16;107389;1256;124160;-86
2023/08/13 12:42:55;;;;;;;;;;;;;;;27.11;46.41;101392.30;107164;1257;70311;-89
2023/08/13 12:45:23;;;;;;;;;;;;;;;27.14;46.42;101390.20;107075;1255;124483;-90
2023/08/13 12:47:50;;;;;;;;;;;;;;;27.22;46.12;101390.50;107287;1256;61130;-88
2023/08/13 12:50:17;;;;;;;;;;;;;;;27.35;46.52;101386.11;107324;1256;75227;-86
2023/08/13 12:52:44;;;;;;;;;;;;;;;27.57;46.23;101384.09;107442;1257;124306;-86
2023/08/13 12:55:11;;;;;;;;;;;;;;;27.75;46.40;101383.61;107385;1257;72468;-88
2023/08/13 12:57:38;;;;;;;;;;;;;;;27.92;46.00;101390.60;107309;1261;124363;-89
2023/08/13 13:03:34;;;;;;;;;;;;;;;27.77;45.55;101390.94;107048;1256;75354;-84
2023/08/13 13:06:01;;;;;;;;;;;;;;;27.62;45.43;101391.30;107288;1256;66907;-85
2023/08/13 13:08:34;;;;;;;;;;;;;;;27.53;45.62;101393.59;107741;1256;63870;-91
2023/08/13 13:11:10;;;;;;;;;;;;;;;27.44;45.44;101397.00;107262;1256;124271;-86
2023/08/13 13:14:09;;;;;;;;;;;;;;;27.26;45.38;101395.78;107691;1256;60012;-88
2023/08/13 13:16:39;;;;;;;;;;;;;;;27.12;45.59;101398.23;107717;1256;124209;-87
2023/08/13 13:19:15;;;;;;;;;;;;;;;27.05;45.62;101401.00;107817;1257;67443;-89
2023/08/13 13:21:53;;;;;;;;;;;;;;;26.98;45.75;101397.44;107491;1257;124204;-92
2023/08/13 13:24:29;;;;;;;;;;;;;;;26.97;45.69;101397.11;107981;1255;61107;-91
2023/08/13 13:26:59;;;;;;;;;;;;;;;26.87;45.94;101402.11;107573;1257;124311;-90
2023/08/13 13:29:52;;;;;;;;;;;;;;;26.75;46.01;101397.45;108334;1257;74810;-88
2023/08/13 13:32:21;;;;;;;;;;;;;;;26.58;46.07;101402.66;107455;1255;66208;-87
2023/08/13 13:37:59;;;;;;;;;;;;;;;26.50;46.32;101405.80;107271;1259;61309;-87
2023/08/13 13:40:34;;;;;;;;;;;;;;;26.53;46.34;101409.11;107199;1256;124458;-87